createdAt,value
2022-09-23T00:01:32.876Z,4.72
2022-09-23T00:04:33.490Z,5.73
2022-09-23T00:07:04.501Z,5.66
2022-09-23T00:09:33.019Z,5.65
2022-09-23T00:12:04.628Z,5.59
2022-09-23T00:14:38.119Z,5.51
2022-09-23T00:17:06.980Z,5.36
2022-09-23T00:19:35.256Z,5.33
2022-09-23T00:22:03.438Z,5.48
2022-09-23T00:24:32.473Z,5.54
2022-09-23T00:27:00.756Z,5.31
2022-09-23T00:29:29.335Z,5.40
2022-09-23T00:31:59.022Z,5.44
2022-09-23T00:34:27.286Z,5.58
2022-09-23T00:36:56.873Z,5.77
2022-09-23T00:39:26.138Z,5.73
2022-09-23T00:41:55.210Z,4.87
2022-09-23T00:44:51.593Z,5.50
2022-09-23T00:47:24.934Z,5.53
2022-09-23T00:50:02.043Z,5.57
2022-09-23T00:52:32.518Z,4.53
2022-09-23T00:55:04.809Z,5.33
2022-09-23T00:57:35.011Z,5.26
2022-09-23T01:00:04.920Z,5.32
2022-09-23T01:02:34.691Z,5.23
2022-09-23T01:05:05.666Z,5.20
2022-09-23T01:07:35.602Z,5.17
2022-09-23T01:10:10.805Z,5.13
2022-09-23T01:13:09.558Z,5.16
2022-09-23T01:15:47.068Z,5.17
2022-09-23T01:18:29.861Z,5.19
2022-09-23T01:21:10.117Z,5.30
2022-09-23T01:24:39.675Z,5.16
2022-09-23T01:27:18.192Z,5.15
2022-09-23T01:30:17.397Z,4.91
2022-09-23T01:33:06.072Z,4.94
2022-09-23T01:36:03.815Z,4.94
2022-09-23T01:38:41.839Z,4.95
2022-09-23T01:41:25.858Z,4.98
2022-09-23T01:44:04.941Z,4.88
2022-09-23T01:46:38.901Z,4.85
2022-09-23T01:49:17.380Z,4.95
2022-09-23T01:51:50.631Z,4.24
2022-09-23T01:54:23.767Z,4.71
2022-09-23T01:56:56.970Z,4.73
2022-09-23T01:59:31.520Z,4.34
2022-09-23T02:02:05.601Z,4.66
2022-09-23T02:04:43.174Z,4.65
2022-09-23T02:07:23.502Z,4.62
2022-09-23T02:09:58.717Z,4.71
2022-09-23T02:12:30.988Z,4.74
2022-09-23T02:15:06.412Z,4.63
2022-09-23T02:17:43.605Z,4.70
2022-09-23T02:20:15.899Z,4.68
2022-09-23T02:22:52.244Z,4.35
2022-09-23T02:25:24.133Z,4.27
2022-09-23T02:28:01.753Z,4.29
2022-09-23T02:30:36.099Z,4.15
2022-09-23T02:33:07.846Z,4.19
2022-09-23T02:35:48.911Z,4.13
2022-09-23T02:38:25.909Z,4.20
2022-09-23T02:41:00.037Z,4.23
2022-09-23T02:43:35.437Z,4.21
2022-09-23T02:46:06.044Z,4.23
2022-09-23T02:48:40.664Z,4.33
2022-09-23T02:51:11.336Z,3.65
2022-09-23T02:53:40.106Z,4.58
2022-09-23T02:56:16.250Z,4.30
2022-09-23T02:58:46.925Z,4.30
2022-09-23T03:01:24.590Z,4.25
2022-09-23T03:04:05.656Z,4.21
2022-09-23T03:06:48.576Z,4.22
2022-09-23T03:09:25.781Z,4.25
2022-09-23T03:12:08.108Z,4.17
2022-09-23T03:14:46.324Z,4.22
2022-09-23T03:17:21.774Z,3.98
2022-09-23T03:19:57.740Z,4.05
2022-09-23T03:22:33.258Z,4.40
2022-09-23T03:25:07.143Z,4.30
2022-09-23T03:27:37.675Z,4.31
2022-09-23T03:30:09.029Z,4.33
2022-09-23T03:32:39.327Z,4.45
2022-09-23T03:35:08.920Z,4.37
2022-09-23T03:37:45.696Z,4.36
2022-09-23T03:40:19.321Z,4.24
2022-09-23T03:42:48.861Z,4.10
2022-09-23T03:45:21.519Z,4.25
2022-09-23T03:47:49.834Z,4.22
2022-09-23T03:50:18.292Z,4.35
2022-09-23T03:52:49.647Z,4.14
2022-09-23T03:55:19.212Z,4.14
2022-09-23T03:57:48.614Z,4.03
2022-09-23T04:00:17.706Z,3.99
2022-09-23T04:02:46.034Z,4.02
2022-09-23T04:05:39.401Z,3.99
2022-09-23T04:08:12.504Z,3.97
2022-09-23T04:11:05.991Z,4.06
2022-09-23T04:13:35.499Z,3.97
2022-09-23T04:16:04.037Z,3.90
2022-09-23T04:18:32.349Z,3.85
2022-09-23T04:21:00.970Z,3.85
2022-09-23T04:23:30.867Z,3.78
2022-09-23T04:25:59.064Z,3.77
2022-09-23T04:28:27.344Z,3.88
2022-09-23T04:30:57.775Z,3.80
2022-09-23T04:33:26.476Z,3.63
2022-09-23T04:35:56.592Z,3.72
2022-09-23T04:38:25.255Z,3.72
2022-09-23T04:40:57.443Z,3.66
2022-09-23T04:43:25.766Z,3.43
2022-09-23T04:46:01.213Z,3.73
2022-09-23T04:48:30.550Z,3.67
2022-09-23T04:51:04.625Z,3.63
2022-09-23T04:53:33.631Z,3.60
2022-09-23T04:56:09.490Z,3.59
2022-09-23T04:58:38.084Z,3.08
2022-09-23T05:01:11.457Z,3.52
2022-09-23T05:03:40.844Z,3.51
2022-09-23T05:06:11.021Z,3.42
2022-09-23T05:08:39.204Z,3.51
2022-09-23T05:11:08.995Z,3.65
2022-09-23T05:13:37.783Z,3.59
2022-09-23T05:16:08.817Z,3.69
2022-09-23T05:18:42.708Z,3.66
2022-09-23T05:21:12.220Z,3.63
2022-09-23T05:23:41.564Z,3.36
2022-09-23T05:26:13.759Z,3.67
2022-09-23T05:28:42.193Z,3.66
2022-09-23T05:31:19.315Z,3.96
2022-09-23T05:33:51.812Z,2.84
2022-09-23T05:36:21.255Z,3.93
2022-09-23T05:38:50.854Z,3.99
2022-09-23T05:41:22.940Z,3.91
2022-09-23T05:43:51.849Z,3.86
2022-09-23T05:46:23.201Z,4.03
2022-09-23T05:48:52.505Z,4.11
2022-09-23T05:51:25.458Z,4.26
2022-09-23T05:53:58.186Z,3.69
2022-09-23T05:56:30.160Z,4.06
2022-09-23T05:59:04.981Z,4.59
2022-09-23T06:01:41.951Z,4.89
2022-09-23T06:04:15.166Z,4.82
2022-09-23T06:06:44.595Z,4.98
2022-09-23T06:09:14.929Z,5.07
2022-09-23T06:11:44.420Z,5.16
2022-09-23T06:14:14.963Z,5.11
2022-09-23T06:16:43.865Z,5.52
2022-09-23T06:19:12.200Z,5.69
2022-09-23T06:21:41.489Z,5.74
2022-09-23T06:24:15.247Z,5.97
2022-09-23T06:26:49.096Z,6.12
2022-09-23T06:29:18.199Z,6.43
2022-09-23T06:31:46.541Z,6.49
2022-09-23T06:34:15.284Z,6.62
2022-09-23T06:36:46.170Z,6.59
2022-09-23T06:39:16.249Z,6.94
2022-09-23T06:41:45.435Z,7.08
2022-09-23T06:44:15.808Z,7.26
2022-09-23T06:46:44.552Z,7.41
2022-09-23T06:49:13.322Z,7.45
2022-09-23T06:51:42.201Z,7.33
2022-09-23T06:54:11.076Z,7.76
2022-09-23T06:56:39.997Z,7.83
2022-09-23T06:59:10.978Z,6.80
2022-09-23T07:01:40.675Z,8.42
2022-09-23T07:04:10.105Z,8.55
2022-09-23T07:06:38.409Z,8.66
2022-09-23T07:09:08.096Z,8.87
2022-09-23T07:11:37.755Z,9.09
2022-09-23T07:14:06.635Z,9.28
2022-09-23T07:16:34.776Z,9.40
2022-09-23T07:19:04.344Z,9.58
2022-09-23T07:21:32.620Z,9.76
2022-09-23T07:24:00.977Z,9.86
2022-09-23T07:26:29.509Z,10.08
2022-09-23T07:29:04.929Z,10.27
2022-09-23T07:31:39.608Z,10.43
2022-09-23T07:34:11.532Z,10.58
2022-09-23T07:36:41.479Z,10.60
2022-09-23T07:39:12.255Z,10.31
2022-09-23T07:41:41.570Z,10.95
2022-09-23T07:44:11.741Z,11.03
2022-09-23T07:46:40.239Z,11.09
2022-09-23T07:49:10.551Z,11.39
2022-09-23T07:51:41.083Z,11.48
2022-09-23T07:54:13.003Z,11.54
2022-09-23T07:56:42.791Z,11.09
2022-09-23T07:59:15.374Z,11.69
2022-09-23T08:01:50.183Z,11.76
2022-09-23T08:04:24.675Z,11.86
2022-09-23T08:06:55.834Z,11.97
2022-09-23T08:09:27.301Z,12.12
2022-09-23T08:11:55.976Z,12.36
2022-09-23T08:14:24.222Z,12.33
2022-09-23T08:16:52.873Z,12.54
2022-09-23T08:19:23.391Z,12.76
2022-09-23T08:21:52.187Z,12.46
2022-09-23T08:24:23.645Z,12.87
2022-09-23T08:26:53.879Z,12.83
2022-09-23T08:29:25.011Z,12.92
2022-09-23T08:31:54.415Z,13.01
2022-09-23T08:34:24.597Z,12.84
2022-09-23T08:36:53.271Z,13.04
2022-09-23T08:39:23.081Z,13.12
2022-09-23T08:42:17.453Z,13.33
2022-09-23T08:44:50.824Z,13.47
2022-09-23T08:47:24.500Z,13.57
2022-09-23T08:50:01.761Z,13.41
2022-09-23T08:52:36.422Z,13.77
2022-09-23T08:55:06.164Z,13.93
2022-09-23T08:58:02.385Z,13.97
2022-09-23T09:00:46.160Z,14.15
2022-09-23T09:03:22.529Z,13.99
2022-09-23T09:05:54.751Z,14.08
2022-09-23T09:08:31.263Z,14.22
2022-09-23T09:11:00.827Z,14.40
2022-09-23T09:13:33.854Z,14.39
2022-09-23T09:16:36.589Z,14.50
2022-09-23T09:19:20.439Z,14.37
2022-09-23T09:21:54.826Z,14.51
2022-09-23T09:24:30.855Z,14.47
2022-09-23T09:26:59.100Z,14.63
2022-09-23T09:29:35.726Z,14.83
2022-09-23T09:32:20.095Z,14.90
2022-09-23T09:34:55.411Z,14.98
2022-09-23T09:37:33.626Z,15.19
2022-09-23T09:40:02.184Z,15.13
2022-09-23T09:42:39.944Z,15.30
2022-09-23T09:45:19.955Z,15.44
2022-09-23T09:48:04.214Z,15.55
2022-09-23T09:50:51.914Z,15.77
2022-09-23T09:53:27.444Z,15.62
2022-09-23T09:56:05.227Z,15.48
2022-09-23T09:58:43.760Z,15.63
2022-09-23T10:01:25.410Z,15.75
2022-09-23T10:03:59.245Z,15.70
2022-09-23T10:06:30.379Z,15.86
2022-09-23T10:09:16.984Z,15.62
2022-09-23T10:12:11.250Z,16.28
2022-09-23T10:14:39.684Z,16.29
2022-09-23T10:17:16.600Z,16.20
2022-09-23T10:19:49.347Z,16.26
2022-09-23T10:22:22.913Z,16.48
2022-09-23T10:24:55.082Z,16.26
2022-09-23T10:27:31.802Z,16.75
2022-09-23T10:30:03.537Z,16.76
2022-09-23T10:32:36.301Z,16.90
2022-09-23T10:35:15.677Z,16.42
2022-09-23T10:37:48.388Z,16.76
2022-09-23T10:40:40.126Z,16.60
2022-09-23T10:43:47.188Z,16.18
2022-09-23T10:46:39.559Z,16.93
2022-09-23T10:50:01.185Z,17.00
2022-09-23T10:52:45.594Z,17.04
2022-09-23T10:55:31.113Z,17.25
2022-09-23T10:58:20.675Z,17.40
2022-09-23T11:01:06.137Z,17.45
2022-09-23T11:04:16.493Z,17.49
2022-09-23T11:07:03.082Z,17.70
2022-09-23T11:09:44.516Z,17.98
2022-09-23T11:12:27.289Z,18.10
2022-09-23T11:15:24.782Z,18.27
2022-09-23T11:18:13.594Z,18.47
2022-09-23T11:20:50.098Z,18.87
2022-09-23T11:23:42.688Z,18.55
2022-09-23T11:26:32.758Z,18.62
2022-09-23T11:29:55.562Z,18.82
2022-09-23T11:32:51.408Z,19.16
2022-09-23T11:35:23.467Z,19.27
2022-09-23T11:37:56.600Z,19.43
2022-09-23T11:40:32.022Z,19.48
2022-09-23T11:43:07.315Z,18.81
2022-09-23T11:45:43.610Z,19.55
2022-09-23T11:48:18.311Z,19.29
2022-09-23T11:50:51.810Z,19.37
2022-09-23T11:53:24.631Z,19.10
2022-09-23T11:55:59.041Z,19.22
2022-09-23T11:58:30.938Z,19.14
2022-09-23T12:01:06.775Z,19.37
2022-09-23T12:03:50.269Z,19.88
2022-09-23T12:06:22.847Z,20.14
2022-09-23T12:08:58.921Z,20.56
2022-09-23T12:11:38.914Z,20.54
2022-09-23T12:14:21.507Z,20.72
2022-09-23T12:17:11.200Z,21.02
2022-09-23T12:20:09.435Z,21.27
2022-09-23T12:22:54.235Z,21.13
2022-09-23T12:25:38.686Z,21.45
2022-09-23T12:28:13.556Z,21.55
2022-09-23T12:30:43.132Z,21.53
2022-09-23T12:33:24.696Z,21.24
2022-09-23T12:35:54.873Z,22.11
2022-09-23T12:38:27.352Z,22.18
2022-09-23T12:40:57.138Z,21.47
2022-09-23T12:43:34.466Z,20.28
2022-09-23T12:46:21.300Z,20.33
2022-09-23T12:49:01.977Z,20.13
2022-09-23T12:51:31.336Z,20.49
2022-09-23T12:54:27.743Z,21.26
2022-09-23T12:57:07.449Z,21.61
2022-09-23T12:59:58.724Z,21.79
2022-09-23T13:02:35.301Z,22.27
2022-09-23T13:05:38.295Z,21.47
2022-09-23T13:08:17.175Z,21.68
2022-09-23T13:10:49.713Z,21.80
2022-09-23T13:13:25.151Z,20.74
2022-09-23T13:15:54.996Z,20.75
2022-09-23T13:19:00.630Z,20.06
2022-09-23T13:22:06.680Z,19.45
2022-09-23T13:24:55.694Z,19.05
2022-09-23T13:27:28.982Z,19.67
2022-09-23T13:30:02.219Z,19.75
2022-09-23T13:32:34.462Z,20.37
2022-09-23T13:35:06.059Z,20.94
2022-09-23T13:37:45.410Z,20.40
2022-09-23T13:40:24.703Z,19.43
2022-09-23T13:42:58.597Z,20.17
2022-09-23T13:45:30.853Z,20.57
2022-09-23T13:48:05.939Z,20.51
2022-09-23T13:50:36.601Z,20.60
2022-09-23T13:53:12.095Z,20.43
2022-09-23T13:55:41.408Z,20.06
2022-09-23T13:58:20.382Z,19.85
2022-09-23T14:00:49.787Z,19.64
2022-09-23T14:03:23.154Z,20.03
2022-09-23T14:05:52.624Z,20.05
2022-09-23T14:08:24.863Z,20.07
2022-09-23T14:10:53.577Z,19.68
2022-09-23T14:13:26.163Z,19.52
2022-09-23T14:15:58.230Z,19.63
2022-09-23T14:18:35.063Z,19.62
2022-09-23T14:21:03.708Z,19.93
2022-09-23T14:23:33.394Z,20.14
2022-09-23T14:26:03.629Z,19.64
2022-09-23T14:28:32.049Z,20.22
2022-09-23T14:31:00.727Z,20.46
2022-09-23T14:33:33.654Z,20.89
2022-09-23T14:36:16.874Z,20.78
2022-09-23T14:38:51.378Z,20.96
2022-09-23T14:41:25.820Z,20.97
2022-09-23T14:43:58.441Z,20.90
2022-09-23T14:46:28.863Z,21.72
2022-09-23T14:49:06.547Z,22.03
2022-09-23T14:51:45.926Z,21.75
2022-09-23T14:54:43.729Z,21.37
2022-09-23T14:57:28.370Z,21.11
2022-09-23T15:00:02.380Z,21.21
2022-09-23T15:02:35.359Z,21.21
2022-09-23T15:05:20.319Z,21.80
2022-09-23T15:07:53.636Z,22.21
2022-09-23T15:10:27.749Z,22.14
2022-09-23T15:13:04.138Z,22.82
2022-09-23T15:15:32.488Z,22.35
2022-09-23T15:18:06.310Z,22.78
2022-09-23T15:20:35.350Z,22.81
2022-09-23T15:23:03.849Z,22.61
2022-09-23T15:25:36.641Z,21.50
2022-09-23T15:28:19.454Z,21.27
2022-09-23T15:30:47.853Z,21.41
2022-09-23T15:33:16.170Z,21.18
2022-09-23T15:35:48.419Z,21.03
2022-09-23T15:38:17.529Z,20.97
2022-09-23T15:40:47.437Z,20.38
2022-09-23T15:43:20.944Z,20.11
2022-09-23T15:45:53.120Z,19.90
2022-09-23T15:48:24.767Z,19.62
2022-09-23T15:50:54.610Z,19.26
2022-09-23T15:53:25.746Z,19.55
2022-09-23T15:55:55.711Z,19.38
2022-09-23T15:58:26.080Z,19.41
2022-09-23T16:00:57.327Z,19.56
2022-09-23T16:03:28.795Z,19.47
2022-09-23T16:06:24.245Z,19.33
2022-09-23T16:08:53.110Z,19.20
2022-09-23T16:11:25.774Z,18.73
2022-09-23T16:13:54.601Z,18.98
2022-09-23T16:16:22.849Z,18.98
2022-09-23T16:18:51.563Z,18.81
2022-09-23T16:21:22.351Z,18.68
2022-09-23T16:23:53.306Z,18.65
2022-09-23T16:26:26.860Z,18.47
2022-09-23T16:28:57.337Z,18.45
2022-09-23T16:31:29.630Z,18.36
2022-09-23T16:33:58.828Z,18.14
2022-09-23T16:36:31.083Z,18.18
2022-09-23T16:39:00.718Z,18.05
2022-09-23T16:41:32.360Z,18.08
2022-09-23T16:44:02.207Z,18.07
2022-09-23T16:46:31.664Z,18.04
2022-09-23T16:49:00.805Z,18.08
2022-09-23T16:51:31.629Z,17.75
2022-09-23T16:54:00.692Z,17.74
2022-09-23T16:56:32.018Z,17.66
2022-09-23T16:59:00.459Z,17.53
2022-09-23T17:01:47.895Z,17.59
2022-09-23T17:04:20.401Z,17.40
2022-09-23T17:06:50.584Z,17.17
2022-09-23T17:09:20.920Z,16.98
2022-09-23T17:11:59.185Z,16.68
2022-09-23T17:14:27.946Z,16.43
2022-09-23T17:16:56.352Z,16.31
2022-09-23T17:19:25.073Z,16.27
2022-09-23T17:21:54.602Z,16.29
2022-09-23T17:24:22.944Z,16.11
2022-09-23T17:26:53.425Z,15.96
2022-09-23T17:29:21.961Z,15.91
2022-09-23T17:31:50.612Z,15.78
2022-09-23T17:34:19.605Z,15.65
2022-09-23T17:36:47.775Z,15.69
2022-09-23T17:39:16.687Z,15.53
2022-09-23T17:41:45.387Z,15.44
2022-09-23T17:44:16.080Z,15.37
2022-09-23T17:46:44.282Z,15.35
2022-09-23T17:49:12.532Z,15.24
2022-09-23T17:51:41.409Z,15.11
2022-09-23T17:54:10.123Z,15.17
2022-09-23T17:56:38.211Z,14.93
2022-09-23T17:59:06.460Z,14.97
2022-09-23T18:01:36.189Z,14.85
2022-09-23T18:04:05.637Z,14.82
2022-09-23T18:06:38.901Z,14.09
2022-09-23T18:09:10.037Z,14.73
2022-09-23T18:11:41.023Z,14.66
2022-09-23T18:14:15.277Z,14.34
2022-09-23T18:16:47.330Z,13.66
2022-09-23T18:19:18.155Z,14.36
2022-09-23T18:21:50.446Z,14.23
2022-09-23T18:24:35.478Z,14.23
2022-09-23T18:27:03.776Z,14.19
2022-09-23T18:29:31.991Z,14.04
2022-09-23T18:32:01.986Z,13.96
2022-09-23T18:34:30.263Z,14.00
2022-09-23T18:36:58.537Z,13.85
2022-09-23T18:39:26.998Z,13.82
2022-09-23T18:41:55.507Z,13.79
2022-09-23T18:44:24.273Z,13.80
2022-09-23T18:46:52.454Z,13.73
2022-09-23T18:49:39.876Z,13.66
2022-09-23T18:52:08.099Z,13.53
2022-09-23T18:54:36.402Z,13.50
2022-09-23T18:57:04.892Z,13.54
2022-09-23T18:59:33.482Z,13.57
2022-09-23T19:02:01.807Z,13.43
2022-09-23T19:04:31.696Z,13.49
2022-09-23T19:07:00.235Z,13.37
2022-09-23T19:09:28.490Z,13.27
2022-09-23T19:11:57.490Z,13.23
2022-09-23T19:14:26.448Z,13.24
2022-09-23T19:16:54.734Z,13.18
2022-09-23T19:19:22.937Z,13.14
2022-09-23T19:21:52.667Z,13.07
2022-09-23T19:24:21.019Z,12.95
2022-09-23T19:26:50.246Z,12.84
2022-09-23T19:29:21.732Z,12.85
2022-09-23T19:31:51.092Z,12.89
2022-09-23T19:34:23.735Z,12.69
2022-09-23T19:36:55.909Z,12.74
2022-09-23T19:39:26.282Z,12.82
2022-09-23T19:41:55.624Z,12.80
2022-09-23T19:44:25.133Z,12.70
2022-09-23T19:46:56.780Z,12.73
2022-09-23T19:49:26.075Z,12.79
2022-09-23T19:51:56.556Z,12.59
2022-09-23T19:54:27.329Z,12.62
2022-09-23T19:56:55.921Z,12.71
2022-09-23T19:59:26.247Z,12.55
2022-09-23T20:01:54.649Z,12.69
2022-09-23T20:04:26.239Z,12.53
2022-09-23T20:07:12.707Z,12.45
2022-09-23T20:09:40.997Z,12.38
2022-09-23T20:12:09.548Z,12.49
2022-09-23T20:14:37.857Z,12.33
2022-09-23T20:17:07.593Z,12.31
2022-09-23T20:19:35.807Z,12.28
2022-09-23T20:22:21.788Z,12.31
2022-09-23T20:24:51.443Z,12.10
2022-09-23T20:27:18.671Z,12.27
2022-09-23T20:29:48.292Z,12.06
2022-09-23T20:32:16.605Z,12.14
2022-09-23T20:34:46.529Z,12.08
2022-09-23T20:37:17.404Z,11.58
2022-09-23T20:39:46.392Z,12.19
2022-09-23T20:42:16.975Z,12.20
2022-09-23T20:44:46.085Z,12.59
2022-09-23T20:47:16.050Z,11.58
2022-09-23T20:49:46.235Z,12.03
2022-09-23T20:52:16.527Z,11.98
2022-09-23T20:54:45.550Z,11.97
2022-09-23T20:57:16.221Z,11.76
2022-09-23T20:59:44.522Z,11.88
2022-09-23T21:02:12.783Z,11.74
2022-09-23T21:04:41.001Z,11.75
2022-09-23T21:07:09.162Z,11.60
2022-09-23T21:09:37.352Z,11.64
2022-09-23T21:12:06.083Z,11.74
2022-09-23T21:14:35.613Z,11.63
2022-09-23T21:17:03.777Z,11.62
2022-09-23T21:19:32.268Z,11.62
2022-09-23T21:22:00.797Z,11.56
2022-09-23T21:27:18.127Z,11.47
2022-09-23T21:29:47.704Z,11.55
2022-09-23T21:32:15.886Z,11.46
2022-09-23T21:34:44.102Z,11.55
2022-09-23T21:37:12.486Z,11.50
2022-09-23T21:39:40.753Z,11.40
2022-09-23T21:42:09.649Z,11.49
2022-09-23T21:44:38.337Z,11.52
2022-09-23T21:47:07.996Z,11.50
2022-09-23T21:49:36.709Z,11.59
2022-09-23T21:52:04.898Z,11.53
2022-09-23T21:54:33.066Z,11.48
2022-09-23T21:57:01.660Z,11.43
2022-09-23T21:59:30.706Z,11.38
2022-09-23T22:01:59.218Z,11.43
2022-09-23T22:04:29.056Z,11.38
2022-09-23T22:07:00.072Z,11.26
2022-09-23T22:09:28.592Z,11.18
2022-09-23T22:12:09.742Z,11.05
2022-09-23T22:14:39.035Z,10.42
2022-09-23T22:17:10.311Z,10.62
2022-09-23T22:19:45.994Z,10.93
2022-09-23T22:22:18.386Z,10.95
2022-09-23T22:24:48.452Z,10.87
2022-09-23T22:27:19.831Z,10.80
2022-09-23T22:30:06.092Z,10.88
2022-09-23T22:32:43.359Z,10.91
2022-09-23T22:35:16.554Z,10.88
2022-09-23T22:37:45.457Z,10.90
2022-09-23T22:40:16.342Z,10.86
2022-09-23T22:42:45.237Z,11.01
2022-09-23T22:45:13.883Z,10.82
2022-09-23T22:47:45.419Z,10.49
2022-09-23T22:50:15.574Z,10.84
2022-09-23T22:52:43.909Z,10.89
2022-09-23T22:55:12.946Z,10.71
2022-09-23T22:57:41.202Z,10.60
2022-09-23T23:00:12.075Z,10.72
2022-09-23T23:02:42.367Z,10.67
2022-09-23T23:05:10.916Z,10.72
2022-09-23T23:07:40.580Z,10.67
2022-09-23T23:10:10.424Z,10.75
2022-09-23T23:12:39.046Z,10.62
2022-09-23T23:15:12.323Z,10.60
2022-09-23T23:17:43.493Z,10.67
2022-09-23T23:20:11.962Z,10.36
2022-09-23T23:22:41.497Z,10.63
2022-09-23T23:25:10.683Z,10.67
2022-09-23T23:27:39.219Z,10.67
2022-09-23T23:30:09.496Z,10.54
2022-09-23T23:32:37.723Z,10.55
2022-09-23T23:35:07.160Z,10.59
2022-09-23T23:37:35.316Z,10.64
2022-09-23T23:40:05.514Z,10.54
2022-09-23T23:42:34.598Z,10.63
2022-09-23T23:45:02.917Z,10.15
2022-09-23T23:47:31.040Z,10.37
2022-09-23T23:49:59.199Z,10.32
2022-09-23T23:52:27.428Z,10.44
2022-09-23T23:54:55.932Z,10.45
2022-09-23T23:57:25.477Z,10.21
2022-09-23T23:59:53.902Z,10.25
